Pinetown, Pennsylvania
Current Conditions -  °F | °C
As of 8:56 AM on Monday 24 Nov 2014 (Local Time) from KCXY Reporting Station
Scattered Clouds Scattered Clouds  
Wind Chill: 66°   Ceiling: Unl
Heat Index: 66°   Visibility: 10mi
Dew Point: 57°   Wind: 14mph
Humidity: 73%   Direction: 210°SSW
Pressure: 29.62"   Gusts: 26mph
Location:  40.1328°N, 76.8833°W
Report Text: KCXY 241356Z 21012G23KT 10SM SCT022 19/14 A2962 RMK AO2 PK WND 19027/1345 SLP030 T01890139
Loading
Personal Weather Stations






























Interactive Weather Map New forecast layout! Learn more

10-Day Weather Forecast

Advertisements
Track Severe Weather on mobile